Time;durP1;ratioP1;P1;durP2;ratioP2;P2;SDS_P1;SDS_P2;PMS_P1;PMS_P2;Temp;Humidity;BMP_temperature;BMP_pressure;BME280_temperature;BME280_humidity;BME280_pressure;Samples;Min_cycle;Max_cycle;Signal;HPM_P1;HPM_P2
2021/01/28 00:00:39;;;;;;;35.15;12.37;;;;;;;-1.33;77.70;98585.75;1728973;82;21189;-80
2021/01/28 00:03:12;;;;;;;31.00;12.75;;;;;;;-1.35;78.19;98581.44;1696581;84;21166;-79
2021/01/28 00:05:45;;;;;;;25.95;10.95;;;;;;;-1.37;78.14;98578.89;1724816;82;22634;-79
2021/01/28 00:08:15;;;;;;;26.95;11.95;;;;;;;-1.37;77.70;98577.62;1728049;82;21168;-79
2021/01/28 00:10:43;;;;;;;28.12;10.82;;;;;;;-1.41;78.11;98574.59;1728796;82;21330;-80
2021/01/28 00:13:13;;;;;;;29.95;11.50;;;;;;;-1.50;78.36;98584.22;1695016;84;21191;-80
2021/01/28 00:15:42;;;;;;;30.65;12.82;;;;;;;-1.50;77.94;98591.86;1727303;82;21192;-80
2021/01/28 00:18:13;;;;;;;28.50;10.32;;;;;;;-1.56;78.21;98590.50;1695895;84;21188;-79
2021/01/28 00:20:48;;;;;;;31.15;10.70;;;;;;;-1.51;77.70;98591.44;1696624;83;21194;-80
2021/01/28 00:23:18;;;;;;;30.85;11.55;;;;;;;-1.55;77.47;98582.03;1729265;82;21652;-79
2021/01/28 00:25:47;;;;;;;24.05;10.82;;;;;;;-1.59;78.15;98584.09;1728811;82;21145;-79
2021/01/28 00:28:19;;;;;;;28.65;11.28;;;;;;;-1.60;78.16;98591.28;1730367;82;21168;-78
2021/01/28 00:30:50;;;;;;;26.52;10.10;;;;;;;-1.61;77.95;98594.27;1725102;82;21145;-78
2021/01/28 00:33:23;;;;;;;29.75;11.97;;;;;;;-1.58;77.46;98595.99;1729327;82;21184;-79
2021/01/28 00:35:55;;;;;;;23.57;9.80;;;;;;;-1.62;77.83;98598.91;1727644;82;21339;-80
2021/01/28 00:38:32;;;;;;;28.80;10.80;;;;;;;-1.66;78.29;98594.59;1738141;82;21322;-79
2021/01/28 00:41:04;;;;;;;29.45;11.00;;;;;;;-1.67;78.33;98589.08;1732292;82;22159;-80
2021/01/28 00:43:32;;;;;;;25.68;10.05;;;;;;;-1.67;77.92;98591.63;1733853;82;21597;-79
2021/01/28 00:46:02;;;;;;;26.40;10.48;;;;;;;-1.69;78.06;98592.02;1702223;83;21342;-80
2021/01/28 00:48:30;;;;;;;22.77;9.65;;;;;;;-1.70;77.70;98593.26;1670278;85;21196;-80
2021/01/28 00:51:00;;;;;;;23.90;9.93;;;;;;;-1.76;78.30;98586.79;1724531;82;21545;-79
2021/01/28 00:53:28;;;;;;;28.27;10.98;;;;;;;-1.79;78.37;98582.52;1732204;82;21326;-79
2021/01/28 00:55:56;;;;;;;33.90;11.75;;;;;;;-1.76;77.87;98581.70;1730332;82;21200;-79
2021/01/28 00:58:34;;;;;;;23.77;10.25;;;;;;;-1.80;78.46;98575.27;1877207;76;22919;-80
2021/01/28 01:01:04;;;;;;;22.00;9.83;;;;;;;-1.89;78.68;98572.59;1871829;76;22406;-79
2021/01/28 01:03:31;;;;;;;26.70;11.08;;;;;;;-1.92;78.98;98564.88;1869270;76;21262;-79
2021/01/28 01:05:59;;;;;;;27.27;10.25;;;;;;;-1.92;78.34;98562.33;1870001;76;21278;-79
2021/01/28 01:08:32;;;;;;;23.05;9.43;;;;;;;-1.93;78.64;98558.09;1869042;76;21282;-79
2021/01/28 01:11:22;;;;;;;22.45;9.55;;;;;;;-1.90;78.64;98554.30;1800739;78;22869;-79
2021/01/28 01:13:51;;;;;;;23.20;9.98;;;;;;;-1.93;77.92;98559.36;1802823;79;22556;-80
2021/01/28 01:16:21;;;;;;;30.97;11.95;;;;;;;-1.95;78.44;98561.02;1796269;79;21280;-78
2021/01/28 01:19:00;;;;;;;22.80;10.20;;;;;;;-2.00;78.91;98559.66;1791088;79;21164;-80
2021/01/28 01:21:30;;;;;;;25.75;9.85;;;;;;;-1.99;78.70;98554.14;1795141;79;21137;-78
2021/01/28 01:24:04;;;;;;;27.75;10.82;;;;;;;-2.06;79.35;98551.91;1797877;79;21165;-80
2021/01/28 01:26:32;;;;;;;30.17;11.73;;;;;;;-2.03;79.30;98544.73;1791801;79;22734;-79
2021/01/28 01:29:00;;;;;;;23.85;10.55;;;;;;;-2.07;79.49;98549.34;1789414;79;21292;-79
2021/01/28 01:31:39;;;;;;;33.60;11.90;;;;;;;-1.97;79.09;98543.59;1796593;78;22909;-79
2021/01/28 01:34:07;;;;;;;20.40;9.43;;;;;;;-1.97;78.70;98543.98;1797330;79;21280;-80
2021/01/28 01:36:35;;;;;;;24.00;10.00;;;;;;;-1.95;78.61;98536.83;1796235;79;21598;-79
2021/01/28 01:39:04;;;;;;;26.93;9.95;;;;;;;-1.91;78.41;98528.78;1743764;82;21709;-79
2021/01/28 01:41:36;;;;;;;26.77;10.20;;;;;;;-1.93;78.75;98536.43;1792285;79;21748;-79
2021/01/28 01:44:07;;;;;;;27.87;9.53;;;;;;;-1.94;79.09;98531.30;1789471;79;21128;-78
2021/01/28 01:46:37;;;;;;;25.02;10.05;;;;;;;-1.93;78.66;98524.97;1795514;79;21858;-79
2021/01/28 01:49:10;;;;;;;25.90;9.48;;;;;;;-1.97;79.26;98524.48;1793237;79;21596;-78
2021/01/28 01:51:42;;;;;;;23.22;8.88;;;;;;;-1.87;78.72;98521.63;1793333;79;21289;-80
2021/01/28 01:54:32;;;;;;;21.50;8.95;;;;;;;-1.82;78.85;98515.77;1802847;78;23485;-79
2021/01/28 01:57:07;;;;;;;22.02;8.88;;;;;;;-1.85;78.75;98530.16;1792572;79;21295;-79
2021/01/28 01:59:50;;;;;;;20.40;8.70;;;;;;;-1.83;78.80;98516.63;1789262;79;21295;-78
2021/01/28 02:02:40;;;;;;;27.58;10.50;;;;;;;-1.81;78.98;98520.05;1802804;79;21288;-80
2021/01/28 02:05:31;;;;;;;25.20;10.38;;;;;;;-1.78;78.82;98517.95;1793618;79;21277;-78
2021/01/28 02:08:19;;;;;;;23.27;9.53;;;;;;;-1.78;78.74;98517.95;1798194;79;21287;-79
2021/01/28 02:11:09;;;;;;;28.00;9.95;;;;;;;-1.66;78.40;98516.00;1806316;78;22932;-79
2021/01/28 02:13:42;;;;;;;23.65;9.80;;;;;;;-1.69;78.30;98519.38;1815608;79;21303;-79
2021/01/28 02:16:29;;;;;;;27.32;11.40;;;;;;;-1.62;78.30;98520.31;1840070;77;22970;-79
2021/01/28 02:19:05;;;;;;;24.80;8.70;;;;;;;-1.72;78.45;98517.19;1751454;80;21295;-80
2021/01/28 02:21:35;;;;;;;24.00;9.15;;;;;;;-1.69;78.51;98517.22;1821530;78;22548;-79
2021/01/28 02:24:40;;;;;;;22.90;9.93;;;;;;;-1.61;78.53;98519.49;1809172;77;23052;-80
2021/01/28 02:27:08;;;;;;;;;;;;;;;-1.63;78.45;98514.79;1824452;78;21886;-80
2021/01/28 02:29:54;;;;;;;25.45;9.28;;;;;;;-1.63;78.52;98510.97;1818192;78;20258;-79
2021/01/28 02:32:24;;;;;;;21.50;9.13;;;;;;;-1.61;78.37;98519.49;1818241;78;21145;-78
2021/01/28 02:35:11;;;;;;;21.35;9.40;;;;;;;-1.57;78.44;98509.77;1803748;78;22942;-80
2021/01/28 02:37:38;;;;;;;26.12;9.68;;;;;;;-1.63;78.45;98515.64;1703953;82;21146;-79
2021/01/28 02:40:12;;;;;;;28.45;9.93;;;;;;;-1.64;78.41;98515.18;1724888;82;21221;-79
2021/01/28 02:43:08;;;;;;;31.23;14.75;;;;;;;-1.51;78.11;98514.08;1817558;76;28005;-79
2021/01/28 02:45:37;;;;;;;24.37;10.20;;;;;;;-1.48;77.89;98517.53;1799805;79;21138;-78
2021/01/28 02:48:19;;;;;;;25.80;9.70;;;;;;;-1.49;77.92;98522.60;1803430;79;21696;-79
2021/01/28 02:50:57;;;;;;;22.67;8.38;;;;;;;-1.55;78.05;98519.58;1799011;79;21118;-80
2021/01/28 02:53:26;;;;;;;18.37;8.18;;;;;;;-1.54;78.04;98517.45;1801414;79;21144;-79
2021/01/28 02:55:57;;;;;;;22.82;8.73;;;;;;;-1.52;78.04;98517.48;1776198;79;21145;-78
2021/01/28 02:58:25;;;;;;;22.48;9.85;;;;;;;-1.54;78.18;98514.05;1800668;79;21121;-79
2021/01/28 03:00:54;;;;;;;25.92;11.65;;;;;;;-1.52;78.01;98519.60;1802802;79;21150;-80
2021/01/28 03:03:23;;;;;;;23.40;9.70;;;;;;;-1.53;78.26;98518.30;1795216;79;21173;-79
2021/01/28 03:05:52;;;;;;;26.57;8.90;;;;;;;-1.56;78.39;98517.00;1806003;79;21339;-79
2021/01/28 03:08:24;;;;;;;22.70;10.25;;;;;;;-1.58;78.25;98517.39;1807081;79;21196;-80
2021/01/28 03:10:54;;;;;;;25.12;9.03;;;;;;;-1.54;78.25;98520.00;1799077;79;21156;-79
2021/01/28 03:13:24;;;;;;;23.02;9.43;;;;;;;-1.56;78.50;98511.47;1800164;79;21184;-79
2021/01/28 03:15:56;;;;;;;24.82;10.50;;;;;;;-1.61;78.70;98513.12;1802260;79;21161;-78
2021/01/28 03:18:25;;;;;;;23.38;9.05;;;;;;;-1.63;78.68;98512.24;1804801;79;21146;-79
2021/01/28 03:20:54;;;;;;;26.07;8.88;;;;;;;-1.64;78.88;98507.96;1801972;79;21149;-79
2021/01/28 03:23:27;;;;;;;32.13;11.33;;;;;;;-1.61;78.70;98505.05;1798433;79;21569;-79
2021/01/28 03:26:00;;;;;;;23.23;8.73;;;;;;;-1.60;78.94;98511.84;1805574;79;21184;-79
2021/01/28 03:28:29;;;;;;;22.95;9.65;;;;;;;-1.57;78.54;98505.95;1800647;79;22287;-79
2021/01/28 03:30:58;;;;;;;26.00;10.63;;;;;;;-1.61;78.87;98508.87;1801498;78;21160;-80
2021/01/28 03:33:28;;;;;;;24.10;9.58;;;;;;;-1.64;79.13;98503.71;1801440;79;21146;-79
2021/01/28 03:35:56;;;;;;;23.40;9.23;;;;;;;-1.61;79.40;98508.02;1781244;79;21145;-79
2021/01/28 03:38:25;;;;;;;29.30;11.15;;;;;;;-1.60;79.19;98508.02;1809560;79;21149;-79
2021/01/28 03:40:54;;;;;;;23.60;10.00;;;;;;;-1.59;79.14;98507.63;1801433;78;21131;-78
2021/01/28 03:43:22;;;;;;;36.35;11.40;;;;;;;-1.54;78.79;98498.75;1799567;78;21141;-79
2021/01/28 03:45:51;;;;;;;36.58;12.58;;;;;;;-1.54;78.90;98502.58;1801834;79;21161;-78
2021/01/28 03:48:19;;;;;;;33.30;13.03;;;;;;;-1.50;78.92;98504.33;1805211;79;21184;-79
2021/01/28 03:50:49;;;;;;;25.45;10.38;;;;;;;-1.56;79.48;98501.27;1790533;79;21445;-79
2021/01/28 03:53:26;;;;;;;34.33;11.40;;;;;;;-1.47;78.90;98491.64;1803831;78;22908;-79
2021/01/28 03:56:02;;;;;;;28.30;11.68;;;;;;;-1.52;79.08;98500.48;1802232;79;21314;-79
2021/01/28 03:58:31;;;;;;;21.45;9.60;;;;;;;-1.52;78.92;98491.55;1800248;79;21181;-78
2021/01/28 04:01:17;;;;;;;25.23;10.98;;;;;;;-1.56;79.45;98496.61;1731345;82;21196;-78
2021/01/28 04:03:45;;;;;;;31.87;11.73;;;;;;;-1.58;79.40;98495.73;1798573;79;21283;-80
2021/01/28 04:06:23;;;;;;;28.42;11.12;;;;;;;-1.54;79.17;98502.16;1793996;79;21624;-78
2021/01/28 04:09:22;;;;;;;33.73;12.05;;;;;;;-1.44;78.84;98499.31;1878506;76;22893;-79
2021/01/28 04:11:52;;;;;;;25.55;9.98;;;;;;;-1.48;78.98;98505.20;1777620;80;21345;-79
2021/01/28 04:14:21;;;;;;;31.25;12.23;;;;;;;-1.46;78.87;98496.73;1790040;80;21302;-79
2021/01/28 04:16:50;;;;;;;29.65;11.50;;;;;;;-1.48;79.13;98495.86;1762684;80;21660;-81
2021/01/28 04:19:18;;;;;;;26.10;11.22;;;;;;;-1.47;78.97;98499.29;1774464;80;21365;-79
2021/01/28 04:21:52;;;;;;;28.92;10.40;;;;;;;-1.45;78.71;98489.54;1756942;80;21180;-79
2021/01/28 04:24:20;;;;;;;28.25;10.93;;;;;;;-1.46;78.86;98503.11;1761341;79;21161;-78
2021/01/28 04:26:53;;;;;;;15.93;7.85;;;;;;;-1.42;78.64;98493.81;1817138;78;21184;-80
2021/01/28 04:29:23;;;;;;;26.25;10.82;;;;;;;-1.39;78.39;98501.52;1770919;80;21192;-80
2021/01/28 04:31:58;;;;;;;29.20;9.95;;;;;;;-1.43;78.28;98497.22;1768345;79;21307;-80
2021/01/28 04:34:28;;;;;;;29.60;11.88;;;;;;;-1.41;78.17;98485.34;1806691;79;21264;-79
2021/01/28 04:36:57;;;;;;;25.05;10.85;;;;;;;-1.47;77.97;98482.29;1753739;79;21778;-79
2021/01/28 04:39:43;;;;;;;24.07;9.75;;;;;;;-1.49;77.81;98492.00;1778003;79;21282;-80
2021/01/28 04:42:22;;;;;;;29.87;11.95;;;;;;;-1.40;77.75;98494.69;1785641;78;21358;-79
2021/01/28 04:44:52;;;;;;;24.47;10.80;;;;;;;-1.50;77.94;98494.98;1739413;80;21698;-79
2021/01/28 04:47:22;;;;;;;25.43;10.43;;;;;;;-1.47;77.98;98501.41;1780118;79;21163;-79
2021/01/28 04:49:59;;;;;;;23.70;9.93;;;;;;;-1.47;78.09;98498.02;1785158;80;21934;-79
2021/01/28 04:52:39;;;;;;;28.73;10.85;;;;;;;-1.51;78.18;98503.48;1784811;79;22137;-80
2021/01/28 04:55:39;;;;;;;29.12;10.13;;;;;;;-1.45;78.04;98503.56;1794009;79;21326;-78
2021/01/28 04:58:10;;;;;;;24.02;10.80;;;;;;;-1.51;78.28;98509.86;1788366;79;21283;-78
2021/01/28 05:00:54;;;;;;;23.62;9.45;;;;;;;-1.49;78.28;98520.05;1778122;80;22404;-78
2021/01/28 05:03:54;;;;;;;30.12;12.37;;;;;;;-1.46;78.45;98515.01;1872657;76;22897;-79
2021/01/28 05:06:36;;;;;;;30.72;10.85;;;;;;;-1.52;78.47;98519.60;1842142;77;21141;-81
2021/01/28 05:09:24;;;;;;;26.20;9.78;;;;;;;-1.49;78.67;98517.11;1787034;78;22967;-79
2021/01/28 05:12:00;;;;;;;30.20;10.55;;;;;;;-1.56;78.75;98517.84;1779377;80;21772;-79
2021/01/28 05:14:42;;;;;;;26.10;10.28;;;;;;;-1.52;78.78;98519.60;1799555;78;22928;-79
2021/01/28 05:17:29;;;;;;;22.50;9.60;;;;;;;-1.50;78.40;98516.66;1730643;82;21189;-81
2021/01/28 05:20:15;;;;;;;29.87;10.88;;;;;;;-1.53;78.68;98525.55;1797963;79;21218;-79
2021/01/28 05:23:03;;;;;;;29.70;10.78;;;;;;;-1.52;78.94;98527.25;1882051;76;22874;-80
2021/01/28 05:25:38;;;;;;;27.22;10.53;;;;;;;-1.50;78.52;98524.73;1855166;77;21308;-78
2021/01/28 05:28:39;;;;;;;31.60;10.38;;;;;;;-1.49;78.93;98520.05;1803868;77;22856;-78
2021/01/28 05:31:33;;;;;;;31.37;11.25;;;;;;;-1.51;78.46;98533.20;1816824;79;21152;-80
2021/01/28 05:34:16;;;;;;;30.48;10.05;;;;;;;-1.46;78.49;98531.16;1803276;79;22845;-81
2021/01/28 05:37:07;;;;;;;32.40;11.50;;;;;;;-1.46;78.19;98532.43;1771987;78;21296;-79
2021/01/28 05:39:40;;;;;;;28.62;10.68;;;;;;;-1.45;78.09;98531.61;1771463;80;21307;-79
2021/01/28 05:42:30;;;;;;;31.12;12.40;;;;;;;-1.52;78.47;98540.00;1774457;78;21318;-80
2021/01/28 05:44:59;;;;;;;26.10;10.30;;;;;;;-1.50;78.38;98540.88;1773858;78;21173;-78
2021/01/28 05:47:33;;;;;;;26.25;11.18;;;;;;;-1.50;78.52;98537.05;1771050;80;21157;-78
2021/01/28 05:50:32;;;;;;;28.35;10.38;;;;;;;-1.46;78.62;98538.80;1805141;77;22942;-78
2021/01/28 05:53:15;;;;;;;31.27;10.65;;;;;;;-1.46;78.47;98538.80;1808448;78;21145;-79
2021/01/28 05:55:47;;;;;;;26.20;8.50;;;;;;;-1.40;78.12;98542.71;1809684;78;21153;-79
2021/01/28 05:58:49;;;;;;;31.35;12.75;;;;;;;-1.36;78.10;98542.34;1805933;78;21173;-79
2021/01/28 06:01:41;;;;;;;25.27;9.30;;;;;;;-1.37;78.08;98541.03;1777293;78;21697;-80
2021/01/28 06:04:38;;;;;;;29.60;10.93;;;;;;;-1.34;77.98;98547.05;1806372;78;21727;-80
2021/01/28 06:07:45;;;;;;;29.90;9.40;;;;;;;-1.37;77.55;98537.21;1808705;78;21148;-79
2021/01/28 06:10:43;;;;;;;25.75;9.63;;;;;;;-1.42;77.54;98544.38;1806680;78;21152;-80
2021/01/28 06:13:58;;;;;;;25.48;9.55;;;;;;;-1.28;77.19;98541.17;1797004;78;22926;-79
2021/01/28 06:17:08;;;;;;;19.70;9.43;;;;;;;-1.39;77.00;98542.31;1803547;79;21326;-79
2021/01/28 06:20:20;;;;;;;19.48;8.38;;;;;;;-1.32;76.63;98542.81;1791415;79;21168;-78
2021/01/28 06:23:15;;;;;;;20.17;7.37;;;;;;;-1.27;76.76;98549.28;1755619;79;21179;-79
2021/01/28 06:26:15;;;;;;;23.98;7.85;;;;;;;-1.27;76.54;98554.38;1795741;79;21281;-78
2021/01/28 06:29:12;;;;;;;18.85;8.00;;;;;;;-1.20;76.41;98554.45;1804274;78;21314;-79
2021/01/28 06:31:58;;;;;;;;;;;;;;;-1.14;75.89;98556.66;1729245;82;21217;-79
2021/01/28 06:35:11;;;;;;;19.48;8.40;;;;;;;-1.22;75.20;98548.47;1743416;82;20666;-79
2021/01/28 06:38:21;;;;;;;21.90;8.53;;;;;;;-1.18;75.31;98551.08;1742941;82;21267;-79
2021/01/28 06:41:15;;;;;;;25.40;9.15;;;;;;;-1.14;75.91;98546.45;1728209;82;21200;-79
2021/01/28 06:44:12;;;;;;;18.85;8.08;;;;;;;-1.13;76.08;98541.80;1757787;81;21314;-79
2021/01/28 06:47:19;;;;;;;33.65;15.32;;;;;;;-1.04;75.94;98540.63;1792172;77;28127;-80
2021/01/28 06:50:00;;;;;;;22.07;9.80;;;;;;;-0.96;76.15;98543.27;1733244;81;21633;-81
2021/01/28 06:52:50;;;;;;;41.92;13.22;;;;;;;-1.03;76.04;98549.58;1755925;80;21144;-79
2021/01/28 06:55:51;;;;;;;28.25;11.05;;;;;;;-0.98;76.23;98547.50;1738210;81;21196;-80
2021/01/28 06:59:02;;;;;;;32.15;13.50;;;;;;;-0.86;75.90;98546.38;1866890;76;27995;-80
2021/01/28 07:02:03;;;;;;;22.02;9.80;;;;;;;-0.80;75.91;98546.44;1851540;77;22098;-80
2021/01/28 07:04:54;;;;;;;23.20;9.25;;;;;;;-0.76;75.58;98547.33;1875485;74;22883;-81
2021/01/28 07:07:26;;;;;;;27.27;9.28;;;;;;;-0.82;74.33;98548.12;1868504;75;21178;-79
2021/01/28 07:10:41;;;;;;;30.10;11.00;;;;;;;-0.65;75.39;98546.62;1805475;77;22941;-82
2021/01/28 07:13:32;;;;;;;23.75;8.83;;;;;;;-0.59;73.64;98548.39;1647355;86;21886;-82
2021/01/28 07:16:37;;;;;;;18.65;6.97;;;;;;;-0.48;70.80;98547.20;1647635;86;21195;-80
2021/01/28 07:19:29;;;;;;;22.70;8.53;;;;;;;-0.31;68.68;98547.39;1801006;78;22908;-80
2021/01/28 07:21:58;;;;;;;22.73;10.20;;;;;;;-0.26;70.08;98555.54;1795146;79;21192;-79
2021/01/28 07:24:34;;;;;;;15.60;6.83;;;;;;;-0.22;68.60;98549.62;1796672;79;21337;-81
2021/01/28 07:27:07;;;;;;;17.30;6.28;;;;;;;-0.16;69.38;98546.27;1792309;79;21176;-81
2021/01/28 07:29:50;;;;;;;15.63;7.08;;;;;;;-0.12;68.58;98545.45;1798806;79;21235;-80
2021/01/28 07:32:26;;;;;;;18.10;5.85;;;;;;;-0.07;68.38;98550.16;1796630;79;21700;-82
2021/01/28 07:35:42;;;;;;;10.82;5.25;;;;;;;0.04;67.99;98551.55;1804945;77;23306;-81
2021/01/28 07:38:38;;;;;;;15.10;5.75;;;;;;;0.04;67.36;98556.66;1807910;79;21181;-81
2021/01/28 07:41:41;;;;;;;18.55;5.42;;;;;;;0.13;65.42;98557.98;1811971;78;21134;-82
2021/01/28 07:44:39;;;;;;;14.20;5.35;;;;;;;0.17;66.25;98559.72;1783182;78;21173;-83
2021/01/28 07:47:33;;;;;;;17.70;7.42;;;;;;;0.23;66.51;98561.48;1770806;80;21194;-83
2021/01/28 07:50:27;;;;;;;25.95;7.42;;;;;;;0.25;67.91;98559.79;1779010;80;21140;-83
2021/01/28 07:53:19;;;;;;;20.50;6.70;;;;;;;0.28;69.10;98556.39;1728812;81;21183;-86
2021/01/28 07:55:47;;;;;;;23.22;7.60;;;;;;;0.25;68.75;98565.33;1764662;80;21193;-83
2021/01/28 07:58:31;;;;;;;19.98;8.33;;;;;;;0.20;69.11;98564.03;1736486;82;21188;-80
2021/01/28 08:01:11;;;;;;;;;;;;;;;0.04;67.45;98563.45;1796415;78;21580;-82
2021/01/28 08:03:59;;;;;;;20.70;7.60;;;;;;;0.12;69.04;98562.69;1808648;78;20193;-84
2021/01/28 08:06:29;;;;;;;34.80;10.98;;;;;;;0.13;69.17;98567.37;1810866;78;21190;-85
2021/01/28 08:09:10;;;;;;;22.48;8.70;;;;;;;0.11;69.50;98567.34;1742488;81;21632;-83
2021/01/28 08:11:38;;;;;;;25.65;10.43;;;;;;;0.05;70.28;98577.52;1811425;78;21168;-84
2021/01/28 08:14:12;;;;;;;26.77;9.68;;;;;;;0.00;70.46;98568.98;1810115;78;21173;-88
2021/01/28 08:16:42;;;;;;;21.37;9.30;;;;;;;-0.06;70.28;98567.62;1814673;78;21311;-84
2021/01/28 08:19:14;;;;;;;23.27;10.45;;;;;;;0.01;70.55;98571.11;1808294;78;21268;-85
2021/01/28 08:21:43;;;;;;;25.00;9.98;;;;;;;-0.04;71.05;98577.43;1817386;78;21121;-88
2021/01/28 08:24:34;;;;;;;32.08;9.43;;;;;;;0.04;70.38;98569.83;1814263;78;21680;-86
2021/01/28 08:26:52;;;;;;;31.02;10.75;;;;;;;0.09;69.88;98576.70;1740637;82;21329;-87
2021/01/28 08:29:22;;;;;;;17.90;8.43;;;;;;;0.13;69.54;98575.88;1742466;81;21332;-85
2021/01/28 08:31:54;;;;;;;28.40;10.75;;;;;;;0.23;69.71;98579.38;1813887;78;21268;-88
2021/01/28 08:34:27;;;;;;;21.25;9.33;;;;;;;0.32;70.14;98578.18;1813141;78;21220;-85
2021/01/28 08:37:03;;;;;;;22.55;9.68;;;;;;;0.41;69.86;98576.09;1813234;79;21268;-88
2021/01/28 08:39:34;;;;;;;23.15;9.95;;;;;;;0.45;69.38;98568.03;1812421;78;21293;-89
2021/01/28 08:42:13;;;;;;;27.55;9.80;;;;;;;0.55;69.25;98573.20;1815686;78;21319;-84
2021/01/28 08:44:45;;;;;;;26.90;9.50;;;;;;;0.65;68.17;98584.80;1813190;78;21295;-86
2021/01/28 08:47:24;;;;;;;23.07;8.48;;;;;;;0.71;68.37;98584.83;1811406;79;21135;-88
2021/01/28 08:50:17;;;;;;;22.85;10.18;;;;;;;0.79;67.54;98585.73;1741874;82;21181;-86
2021/01/28 08:52:47;;;;;;;17.25;8.50;;;;;;;0.87;67.26;98579.38;1742063;82;21302;-89
2021/01/28 08:55:22;;;;;;;18.05;7.83;;;;;;;0.86;65.72;98582.37;1765721;81;21303;-90
2021/01/28 08:57:53;;;;;;;17.65;8.25;;;;;;;0.89;65.51;98575.97;1746570;81;21291;-91
2021/01/28 09:00:23;;;;;;;23.25;9.65;;;;;;;0.99;66.20;98576.47;1741645;82;21179;-88
2021/01/28 09:02:55;;;;;;;21.10;8.70;;;;;;;1.09;66.79;98577.78;1760903;81;21638;-85
2021/01/28 09:05:28;;;;;;;16.00;6.40;;;;;;;1.04;65.62;98571.37;1741264;81;21327;-89
2021/01/28 09:07:59;;;;;;;11.43;5.15;;;;;;;1.09;62.33;98580.34;1756299;81;21294;-86
2021/01/28 09:10:40;;;;;;;22.77;4.90;;;;;;;1.12;58.80;98589.33;1741686;81;21153;-90
2021/01/28 09:13:24;;;;;;;16.93;6.80;;;;;;;1.16;62.55;98582.09;1744592;82;21203;-89
2021/01/28 09:16:15;;;;;;;9.50;4.53;;;;;;;1.10;61.11;98591.02;1745592;81;21165;-86
2021/01/28 09:18:49;;;;;;;12.58;5.30;;;;;;;1.09;59.33;98599.11;1732158;82;21197;-86
2021/01/28 09:21:24;;;;;;;10.55;3.87;;;;;;;1.14;59.23;98593.59;1769535;80;21275;-89
2021/01/28 09:24:20;;;;;;;11.48;3.67;;;;;;;1.19;57.43;98603.45;1761653;80;21300;-90
2021/01/28 09:27:06;;;;;;;13.75;3.58;;;;;;;1.26;54.01;98599.20;1747954;81;21133;-88
2021/01/28 09:29:38;;;;;;;20.10;5.50;;;;;;;1.31;56.15;98597.53;1737439;82;21302;-88
2021/01/28 09:32:13;;;;;;;12.55;3.65;;;;;;;1.31;57.00;98599.20;1750272;81;21153;-88
2021/01/28 09:34:42;;;;;;;19.15;7.17;;;;;;;1.34;52.90;98599.23;1742365;82;21203;-88
2021/01/28 09:37:20;;;;;;;15.28;6.10;;;;;;;1.39;59.47;98590.72;1737168;82;21192;-88
2021/01/28 09:39:54;;;;;;;8.48;3.70;;;;;;;1.38;56.31;98590.71;1733615;82;21197;-87
2021/01/28 09:42:33;;;;;;;10.75;4.20;;;;;;;1.29;52.12;98590.66;1758898;81;21194;-86
2021/01/28 09:45:11;;;;;;;8.60;3.87;;;;;;;1.46;54.15;98588.18;1734045;82;21396;-85
2021/01/28 09:47:42;;;;;;;12.85;4.60;;;;;;;1.53;51.25;98591.17;1732066;82;21686;-87
2021/01/28 09:50:12;;;;;;;12.35;5.05;;;;;;;1.61;50.89;98595.89;1757367;81;21207;-90
2021/01/28 09:52:47;;;;;;;15.23;4.08;;;;;;;1.73;50.09;98601.07;1732992;81;21154;-90
2021/01/28 09:55:30;;;;;;;10.82;4.53;;;;;;;1.65;52.13;98583.95;1756674;81;21458;-89
2021/01/28 09:57:56;;;;;;;9.20;4.35;;;;;;;1.79;52.82;98581.86;1741630;82;21185;-87
2021/01/28 10:00:25;;;;;;;9.78;4.20;;;;;;;1.89;51.42;98580.17;1733621;82;21171;-87
2021/01/28 10:03:02;;;;;;;8.55;4.03;;;;;;;1.96;49.27;98582.30;1761876;81;21181;-87
2021/01/28 10:05:33;;;;;;;10.30;3.90;;;;;;;1.90;50.14;98572.89;1734038;82;21190;-89
2021/01/28 10:08:03;;;;;;;8.20;3.50;;;;;;;2.04;51.81;98571.62;1762835;81;21151;-88
2021/01/28 10:10:34;;;;;;;9.40;4.55;;;;;;;2.10;49.40;98576.76;1762503;81;21165;-90
2021/01/28 10:13:14;;;;;;;10.03;4.55;;;;;;;2.14;50.25;98571.20;1770405;81;21173;-91
2021/01/28 10:15:43;;;;;;;18.02;5.97;;;;;;;2.11;48.91;98569.51;1726356;82;22274;-90
2021/01/28 10:18:12;;;;;;;10.63;4.62;;;;;;;2.14;47.95;98569.92;1758276;81;21637;-90
2021/01/28 10:20:41;;;;;;;8.38;3.87;;;;;;;2.16;48.28;98569.06;1734572;82;21226;-88
2021/01/28 10:23:09;;;;;;;12.55;4.50;;;;;;;2.21;49.17;98575.50;1731393;82;21168;-89
2021/01/28 10:25:38;;;;;;;15.53;5.08;;;;;;;2.27;48.45;98570.77;1728973;83;21676;-89
2021/01/28 10:28:06;;;;;;;11.55;3.85;;;;;;;2.26;47.79;98567.36;1745162;82;21165;-90
2021/01/28 10:30:34;;;;;;;15.23;5.22;;;;;;;2.25;47.62;98559.66;1764112;81;21144;-89
2021/01/28 10:33:03;;;;;;;10.98;5.12;;;;;;;2.23;49.55;98561.36;1732678;82;21205;-88
2021/01/28 10:35:34;;;;;;;13.00;6.37;;;;;;;2.13;48.51;98566.52;1757112;81;21164;-87
2021/01/28 10:38:05;;;;;;;13.93;6.53;;;;;;;1.96;48.33;98560.08;1747914;81;21153;-88
2021/01/28 10:40:34;;;;;;;12.18;5.22;;;;;;;1.96;48.43;98563.08;1747641;82;21622;-89
2021/01/28 10:43:05;;;;;;;10.08;5.45;;;;;;;2.09;48.34;98566.48;1730709;82;21185;-91
2021/01/28 10:45:37;;;;;;;10.98;5.35;;;;;;;2.23;49.78;98566.49;1734329;82;21175;-89
2021/01/28 10:48:07;;;;;;;13.08;5.00;;;;;;;2.29;47.82;98551.09;1754070;81;21168;-90
2021/01/28 10:50:36;;;;;;;16.55;7.83;;;;;;;2.26;50.44;98551.13;1736239;81;21177;-89
2021/01/28 10:53:05;;;;;;;20.92;7.37;;;;;;;2.41;53.85;98545.98;1737197;81;21210;-86
2021/01/28 10:55:34;;;;;;;23.27;6.70;;;;;;;2.51;53.46;98537.41;1754281;81;21149;-84
2021/01/28 10:58:03;;;;;;;43.02;9.00;;;;;;;2.53;53.37;98540.83;1755611;81;21176;-87
2021/01/28 11:00:32;;;;;;;15.28;6.78;;;;;;;2.53;54.33;98533.12;1757437;80;21189;-88
2021/01/28 11:03:01;;;;;;;20.37;9.10;;;;;;;2.65;53.69;98535.26;1760235;80;21181;-87
2021/01/28 11:05:33;;;;;;;15.48;6.47;;;;;;;2.68;52.81;98530.09;1762755;81;21173;-87
2021/01/28 11:08:03;;;;;;;15.03;5.55;;;;;;;2.89;52.70;98531.77;1740368;81;21153;-88
2021/01/28 11:10:31;;;;;;;12.33;6.33;;;;;;;2.90;49.72;98530.89;1749520;81;21586;-86
2021/01/28 11:13:00;;;;;;;13.58;5.10;;;;;;;2.96;48.98;98525.33;1751296;81;21168;-91
2021/01/28 11:15:33;;;;;;;12.37;5.72;;;;;;;3.05;49.37;98524.86;1753340;81;21160;-88
2021/01/28 11:18:04;;;;;;;22.30;5.62;;;;;;;2.92;48.48;98527.45;1754040;81;21221;-86
2021/01/28 11:20:34;;;;;;;14.75;5.87;;;;;;;2.75;48.51;98518.97;1734605;81;21169;-89
2021/01/28 11:23:02;;;;;;;11.18;5.03;;;;;;;2.64;49.58;98527.11;1735439;82;21951;-90
2021/01/28 11:25:31;;;;;;;13.58;5.95;;;;;;;2.55;49.63;98525.44;1754252;81;21677;-88
2021/01/28 11:27:59;;;;;;;9.65;4.75;;;;;;;2.55;48.36;98519.02;1737900;82;21190;-90
2021/01/28 11:30:31;;;;;;;15.25;5.55;;;;;;;2.74;48.47;98517.25;1736763;82;21218;-91
2021/01/28 11:33:00;;;;;;;14.68;5.55;;;;;;;2.73;48.73;98508.70;1754104;81;21811;-90
2021/01/28 11:35:31;;;;;;;10.20;5.95;;;;;;;2.88;49.36;98505.21;1734040;81;21181;-82
2021/01/28 11:38:04;;;;;;;12.33;5.78;;;;;;;2.85;47.89;98511.66;1741287;80;21177;-83
2021/01/28 11:40:33;;;;;;;14.07;5.10;;;;;;;2.82;48.26;98507.80;1741107;81;21169;-83
2021/01/28 11:43:03;;;;;;;10.75;5.12;;;;;;;2.99;48.79;98513.73;1768855;80;21377;-83
2021/01/28 11:45:35;;;;;;;12.03;5.50;;;;;;;3.02;48.07;98503.03;1770860;80;21157;-84
2021/01/28 11:48:06;;;;;;;17.80;6.37;;;;;;;2.91;47.58;98501.80;1766866;80;21162;-87
2021/01/28 11:50:35;;;;;;;12.07;5.37;;;;;;;2.69;47.66;98518.55;1767082;80;21130;-88
2021/01/28 11:53:05;;;;;;;12.95;5.40;;;;;;;2.79;48.71;98495.84;1770726;80;21157;-88
2021/01/28 11:55:35;;;;;;;10.72;5.62;;;;;;;2.93;47.67;98494.95;1739656;82;22212;-84
2021/01/28 11:58:03;;;;;;;17.42;5.60;;;;;;;3.00;47.65;98497.89;1738630;81;21691;-85
2021/01/28 12:00:31;;;;;;;19.65;7.92;;;;;;;3.24;48.55;98485.36;1774028;80;21165;-85
2021/01/28 12:02:59;;;;;;;23.07;10.13;;;;;;;3.49;52.30;98489.09;1744214;81;21642;-89
2021/01/28 12:05:28;;;;;;;24.87;9.75;;;;;;;3.88;52.48;98485.80;1766624;80;21165;-90
2021/01/28 12:07:58;;;;;;;20.43;10.18;;;;;;;4.52;52.26;98485.66;1760641;80;21189;-91
2021/01/28 12:10:29;;;;;;;22.62;9.38;;;;;;;4.85;49.47;98479.26;1768907;80;21169;-89
2021/01/28 12:12:57;;;;;;;24.72;10.50;;;;;;;5.24;49.15;98468.04;1767526;80;21142;-92